Time;durP1;ratioP1;P1;durP2;ratioP2;P2;SDS_P1;SDS_P2;PMS_P1;PMS_P2;Temp;Humidity;BMP_temperature;BMP_pressure;BME280_temperature;BME280_humidity;BME280_pressure;Samples;Min_cycle;Max_cycle;Signal;HPM_P1;HPM_P2
2022/03/14 00:01:01;;;;;;;23.58;12.18;;;;;;;6.73;47.87;94002.06;5050824;28;20036;-52
2022/03/14 00:03:29;;;;;;;25.60;12.30;;;;;;;6.75;47.77;94005.16;5050421;28;20094;-52
2022/03/14 00:05:56;;;;;;;22.67;11.63;;;;;;;6.85;47.37;94002.84;5051042;28;20041;-52
2022/03/14 00:08:24;;;;;;;23.40;12.27;;;;;;;6.88;47.05;94008.31;5050246;28;20049;-53
2022/03/14 00:10:52;;;;;;;24.98;13.32;;;;;;;6.98;46.80;94018.44;5050853;28;20394;-54
2022/03/14 00:13:19;;;;;;;25.05;12.43;;;;;;;6.87;46.88;94025.84;5032759;28;20049;-58
2022/03/14 00:15:46;;;;;;;22.05;11.93;;;;;;;6.86;47.12;94042.59;5050902;28;20551;-53
2022/03/14 00:18:13;;;;;;;24.70;11.97;;;;;;;6.97;45.84;94049.59;5050504;28;20049;-58
2022/03/14 00:20:42;;;;;;;22.58;11.43;;;;;;;7.10;45.77;94068.31;5049154;28;20110;-53
2022/03/14 00:23:09;;;;;;;22.95;11.00;;;;;;;7.15;45.44;94076.13;5050375;28;20051;-52
2022/03/14 00:25:37;;;;;;;25.10;12.85;;;;;;;7.16;46.17;94077.69;5050506;28;20037;-49
2022/03/14 00:28:04;;;;;;;27.08;12.95;;;;;;;7.29;46.41;94078.88;5050597;28;20041;-54
2022/03/14 00:30:31;;;;;;;22.37;11.37;;;;;;;7.41;46.67;94080.44;5049360;28;20068;-49
2022/03/14 00:32:57;;;;;;;24.52;12.00;;;;;;;7.53;47.02;94087.44;5050592;28;20482;-62
2022/03/14 00:35:25;;;;;;;24.95;12.23;;;;;;;7.55;47.56;94096.78;5049614;28;20041;-57
2022/03/14 00:37:51;;;;;;;28.05;12.30;;;;;;;7.58;47.98;94090.53;5050576;28;20057;-58
2022/03/14 00:40:18;;;;;;;28.45;13.55;;;;;;;7.68;48.67;94091.69;5050080;28;20067;-50
2022/03/14 00:42:50;;;;;;;27.60;13.40;;;;;;;7.60;48.87;94104.56;5050487;28;20101;-53
2022/03/14 00:45:17;;;;;;;26.02;12.88;;;;;;;7.67;49.03;94109.28;5048765;28;20061;-61
2022/03/14 00:47:44;;;;;;;26.92;12.88;;;;;;;7.58;49.83;94117.06;5049986;28;20057;-50
2022/03/14 00:50:11;;;;;;;29.05;13.70;;;;;;;7.53;49.83;94118.25;5049725;28;20036;-53
2022/03/14 00:52:37;;;;;;;29.23;14.70;;;;;;;7.57;52.07;94129.94;5049859;28;20040;-52
2022/03/14 00:55:05;;;;;;;30.83;13.97;;;;;;;7.69;51.13;94128.78;5050060;28;20045;-61
2022/03/14 00:57:31;;;;;;;28.77;14.32;;;;;;;7.71;52.13;94150.25;5048858;28;20156;-52
2022/03/14 00:59:58;;;;;;;31.20;14.95;;;;;;;7.68;52.95;94161.94;5049910;28;20040;-61
2022/03/14 01:02:25;;;;;;;29.10;14.07;;;;;;;7.67;54.71;94160.41;5047833;28;20398;-48
2022/03/14 01:04:52;;;;;;;26.45;13.52;;;;;;;7.66;57.75;94170.53;5048694;28;20053;-49
2022/03/14 01:07:19;;;;;;;25.80;13.40;;;;;;;7.59;59.16;94176.00;5049280;28;20044;-55
2022/03/14 01:09:46;;;;;;;24.58;12.27;;;;;;;7.44;60.60;94166.22;5049595;28;20071;-53
2022/03/14 01:12:13;;;;;;;27.10;12.68;;;;;;;7.27;62.77;94182.22;5037534;28;20071;-56
2022/03/14 01:14:42;;;;;;;23.25;11.90;;;;;;;7.36;63.37;94190.00;5049483;28;20063;-58
2022/03/14 01:17:08;;;;;;;23.10;11.73;;;;;;;7.09;65.71;94206.72;5049193;28;20061;-61
2022/03/14 01:19:36;;;;;;;19.13;10.20;;;;;;;6.99;66.29;94213.72;5049454;28;20041;-52
2022/03/14 01:22:03;;;;;;;20.52;10.68;;;;;;;7.02;66.63;94212.16;5049651;28;20037;-49
2022/03/14 01:24:29;;;;;;;19.20;10.40;;;;;;;6.99;66.80;94212.94;5039303;28;20037;-60
2022/03/14 01:26:56;;;;;;;20.85;10.40;;;;;;;7.01;67.29;94221.53;5049599;28;20045;-53
2022/03/14 01:29:23;;;;;;;19.15;9.75;;;;;;;7.08;67.09;94224.25;5048898;28;20052;-53
2022/03/14 01:31:51;;;;;;;19.10;10.17;;;;;;;7.21;67.16;94230.16;5049613;28;20082;-59
2022/03/14 01:34:19;;;;;;;19.30;9.45;;;;;;;7.00;67.79;94226.22;5049091;28;20052;-49
2022/03/14 01:36:45;;;;;;;15.98;8.55;;;;;;;6.89;68.88;94225.38;5047837;28;20048;-52
2022/03/14 01:39:12;;;;;;;14.13;7.15;;;;;;;6.97;69.20;94231.66;5047609;28;20049;-49
2022/03/14 01:41:39;;;;;;;12.25;6.90;;;;;;;7.03;68.86;94232.84;5048880;28;20071;-55
2022/03/14 01:44:06;;;;;;;11.27;6.00;;;;;;;6.86;69.96;94239.00;5048946;28;20044;-49
2022/03/14 01:46:32;;;;;;;11.25;6.07;;;;;;;6.91;70.10;94227.72;5049035;28;20094;-59
2022/03/14 01:49:00;;;;;;;12.18;7.05;;;;;;;6.67;72.57;94237.38;5049232;28;20444;-51
2022/03/14 01:51:27;;;;;;;10.95;6.20;;;;;;;6.80;71.43;94242.09;5048246;28;20045;-68
2022/03/14 01:53:54;;;;;;;14.75;8.32;;;;;;;6.95;71.17;94245.66;5048999;28;20053;-52
2022/03/14 01:56:23;;;;;;;15.03;7.20;;;;;;;6.92;70.69;94249.19;5048221;28;20044;-51
2022/03/14 01:58:52;;;;;;;7.95;4.45;;;;;;;6.66;71.66;94252.16;5048110;28;20063;-54
2022/03/14 02:01:20;;;;;;;8.48;4.30;;;;;;;6.45;72.98;94255.56;5048498;28;20055;-50
2022/03/14 02:03:50;;;;;;;10.10;4.60;;;;;;;6.63;72.28;94250.97;5048665;28;20102;-53
2022/03/14 02:06:18;;;;;;;7.03;3.50;;;;;;;6.76;71.07;94254.94;5048366;28;20482;-51
2022/03/14 02:08:44;;;;;;;6.83;3.87;;;;;;;6.69;71.44;94260.34;5048596;28;20094;-54
2022/03/14 02:11:12;;;;;;;6.75;3.38;;;;;;;6.77;71.23;94261.19;5047156;28;20076;-61
2022/03/14 02:13:38;;;;;;;6.05;3.33;;;;;;;6.75;71.46;94261.56;5048533;28;20045;-59
2022/03/14 02:16:05;;;;;;;5.07;2.83;;;;;;;6.81;71.22;94259.25;5047596;28;20041;-56
2022/03/14 02:18:32;;;;;;;4.70;2.63;;;;;;;6.83;70.05;94264.34;5027157;28;21460;-53
2022/03/14 02:20:59;;;;;;;4.10;2.30;;;;;;;6.68;71.23;94277.09;5044430;28;20049;-50
2022/03/14 02:23:25;;;;;;;5.32;2.95;;;;;;;6.80;71.48;94279.50;5048183;28;20052;-54
2022/03/14 02:25:55;;;;;;;6.63;3.13;;;;;;;6.86;71.21;94277.19;5048386;28;20482;-53
2022/03/14 02:28:22;;;;;;;4.53;2.50;;;;;;;6.57;71.14;94274.31;5048104;28;20048;-59
2022/03/14 02:30:50;;;;;;;3.50;1.63;;;;;;;6.54;70.66;94277.78;5048250;28;20060;-51
2022/03/14 02:33:17;;;;;;;3.47;1.60;;;;;;;6.46;71.10;94289.81;5048176;28;20049;-50
2022/03/14 02:35:44;;;;;;;2.33;1.20;;;;;;;6.28;70.95;94292.44;5048282;28;20063;-62
2022/03/14 02:38:17;;;;;;;2.80;1.38;;;;;;;6.38;70.76;94308.88;5048128;28;20051;-54
2022/03/14 02:40:46;;;;;;;2.72;1.02;;;;;;;6.26;71.36;94311.91;5048311;28;20041;-60
2022/03/14 02:43:15;;;;;;;3.08;1.42;;;;;;;6.18;71.61;94313.78;5047547;28;20047;-47
2022/03/14 02:45:45;;;;;;;2.60;1.20;;;;;;;6.26;71.44;94309.19;5048081;28;20037;-52
2022/03/14 02:48:12;;;;;;;2.00;0.90;;;;;;;6.17;70.87;94317.66;5046641;28;20049;-49
2022/03/14 02:50:43;;;;;;;2.53;1.00;;;;;;;6.28;70.53;94327.84;5047849;28;20049;-51
2022/03/14 02:53:12;;;;;;;18.73;9.70;;;;;;;6.31;70.92;94333.34;5047933;28;20049;-51
2022/03/14 02:55:40;;;;;;;3.00;1.45;;;;;;;6.22;70.82;94343.81;5048126;28;20041;-49
2022/03/14 02:58:07;;;;;;;2.27;1.00;;;;;;;6.24;71.49;94341.47;5047805;28;20114;-47
2022/03/14 03:00:35;;;;;;;2.10;0.90;;;;;;;6.34;70.44;94335.31;5046363;28;20322;-48
2022/03/14 03:03:05;;;;;;;1.90;0.90;;;;;;;6.26;70.66;94336.44;5048240;28;20098;-53
2022/03/14 03:05:36;;;;;;;2.20;1.02;;;;;;;6.06;71.11;94340.56;5046896;28;20829;-49
2022/03/14 03:08:04;;;;;;;1.80;0.80;;;;;;;6.00;71.24;94349.06;5047099;28;20194;-61
2022/03/14 03:10:34;;;;;;;1.80;0.80;;;;;;;6.05;71.64;94342.47;5045786;28;20985;-67
2022/03/14 03:13:04;;;;;;;2.00;1.00;;;;;;;6.08;70.28;94343.69;5048474;28;20376;-59
2022/03/14 03:15:31;;;;;;;2.00;0.90;;;;;;;6.22;70.37;94343.00;5047139;28;20577;-67
2022/03/14 03:17:59;;;;;;;1.80;0.80;;;;;;;6.18;71.90;94356.63;5048245;28;20047;-51
2022/03/14 03:20:26;;;;;;;2.42;0.90;;;;;;;6.18;71.31;94367.50;5047618;28;20063;-55
2022/03/14 03:22:53;;;;;;;3.10;1.17;;;;;;;6.32;70.96;94364.91;5048052;28;20106;-59
2022/03/14 03:25:20;;;;;;;2.22;1.00;;;;;;;6.28;71.14;94366.00;5047651;28;20059;-47
2022/03/14 03:27:47;;;;;;;2.45;1.20;;;;;;;6.19;70.67;94375.28;5047704;28;20045;-52
2022/03/14 03:30:14;;;;;;;2.35;0.70;;;;;;;6.13;68.99;94382.25;5048119;28;20053;-50
2022/03/14 03:32:42;;;;;;;2.42;1.20;;;;;;;6.04;69.36;94378.25;5050228;28;20041;-55
2022/03/14 03:35:09;;;;;;;4.40;3.20;;;;;;;6.08;69.67;94371.72;5051029;28;20072;-50
2022/03/14 03:37:36;;;;;;;4.40;2.40;;;;;;;6.24;69.54;94412.34;5050015;28;20037;-60
2022/03/14 03:40:03;;;;;;;8.73;3.80;;;;;;;6.06;72.22;94423.06;5051773;28;20044;-49
2022/03/14 03:42:31;;;;;;;4.70;2.08;;;;;;;6.16;70.53;94416.16;5051072;28;20041;-50
2022/03/14 03:44:58;;;;;;;2.25;0.70;;;;;;;6.00;68.89;94400.03;5051330;28;20040;-51
2022/03/14 03:47:24;;;;;;;1.90;0.70;;;;;;;6.03;68.21;94417.56;5050981;28;20052;-57
2022/03/14 03:49:51;;;;;;;2.60;1.02;;;;;;;5.98;69.69;94438.56;5049979;28;20045;-55
2022/03/14 03:52:18;;;;;;;2.33;1.05;;;;;;;6.09;68.94;94437.88;5049757;28;20160;-59
2022/03/14 03:54:45;;;;;;;1.90;0.80;;;;;;;6.06;69.38;94433.19;5051276;28;20044;-55
2022/03/14 03:57:12;;;;;;;1.55;0.57;;;;;;;5.97;68.74;94423.34;5050929;28;20037;-51
2022/03/14 03:59:40;;;;;;;1.60;0.50;;;;;;;5.97;69.52;94436.19;5049192;28;20036;-47
2022/03/14 04:02:08;;;;;;;2.30;0.40;;;;;;;6.03;69.03;94450.28;5049217;28;20045;-52
2022/03/14 04:04:37;;;;;;;1.60;0.70;;;;;;;5.89;68.88;94453.59;5049397;28;20040;-49
2022/03/14 04:07:06;;;;;;;1.40;0.50;;;;;;;5.65;68.99;94466.53;5051157;28;20037;-47
2022/03/14 04:09:33;;;;;;;1.40;0.43;;;;;;;5.65;69.42;94461.09;5030208;28;21503;-50
2022/03/14 04:12:00;;;;;;;1.83;0.70;;;;;;;5.76;69.60;94461.25;5046828;28;20094;-52
2022/03/14 04:14:29;;;;;;;1.60;0.70;;;;;;;5.38;71.04;94447.53;5050497;28;20049;-50
2022/03/14 04:16:59;;;;;;;2.58;1.50;;;;;;;5.57;70.82;94456.72;5050333;28;20053;-55
2022/03/14 04:19:25;;;;;;;1.90;0.77;;;;;;;5.73;70.25;94479.09;5050372;28;20119;-57
2022/03/14 04:21:52;;;;;;;1.85;0.80;;;;;;;5.79;70.01;94471.38;5050573;28;20040;-51
2022/03/14 04:24:20;;;;;;;2.60;0.80;;;;;;;5.50;70.99;94481.91;5063756;28;20103;-56
2022/03/14 04:26:47;;;;;;;1.83;0.90;;;;;;;5.66;70.04;94486.41;5050551;28;20037;-51
2022/03/14 04:29:14;;;;;;;7.35;3.60;;;;;;;5.48;70.54;94505.22;5050086;28;20049;-48
2022/03/14 04:31:41;;;;;;;2.40;1.10;;;;;;;5.43;71.31;94514.47;5050459;28;20037;-49
2022/03/14 04:34:09;;;;;;;5.47;1.98;;;;;;;5.53;72.14;94524.75;5050106;28;20055;-50
2022/03/14 04:36:36;;;;;;;2.37;0.90;;;;;;;5.34;71.72;94533.03;5050376;28;20041;-65
2022/03/14 04:39:05;;;;;;;1.80;0.88;;;;;;;5.21;71.50;94543.31;5050295;28;20047;-54
2022/03/14 04:41:36;;;;;;;1.70;0.73;;;;;;;5.16;71.75;94538.97;5049432;28;20041;-59
2022/03/14 04:44:04;;;;;;;1.60;0.60;;;;;;;5.27;71.56;94541.88;5050602;28;20478;-49
2022/03/14 04:46:30;;;;;;;1.70;0.60;;;;;;;5.17;71.58;94543.28;5049944;28;20040;-51
2022/03/14 04:48:57;;;;;;;1.33;0.47;;;;;;;5.13;71.72;94547.06;5049703;28;20106;-52
2022/03/14 04:51:24;;;;;;;1.40;0.50;;;;;;;5.14;71.59;94549.44;5048461;28;20052;-50
2022/03/14 04:53:51;;;;;;;1.88;0.65;;;;;;;5.11;72.29;94546.66;5049801;28;20033;-48
2022/03/14 04:56:19;;;;;;;1.63;0.65;;;;;;;5.15;71.92;94547.50;5048569;28;20051;-58
2022/03/14 04:58:46;;;;;;;1.50;0.60;;;;;;;5.13;72.07;94541.63;5049729;28;20052;-49
2022/03/14 05:01:13;;;;;;;1.50;0.63;;;;;;;5.05;71.84;94546.19;5048199;28;20044;-49
2022/03/14 05:03:40;;;;;;;1.70;0.60;;;;;;;5.10;71.56;94550.53;5041388;28;20106;-55
2022/03/14 05:06:07;;;;;;;1.80;0.70;;;;;;;5.10;71.24;94545.09;5049459;28;20040;-59
2022/03/14 05:08:33;;;;;;;1.48;0.60;;;;;;;5.08;70.96;94550.91;5049913;28;20033;-53
2022/03/14 05:11:00;;;;;;;2.25;0.77;;;;;;;5.07;71.69;94562.94;5049705;28;20041;-50
2022/03/14 05:13:27;;;;;;;2.60;0.80;;;;;;;4.97;72.48;94560.81;5049606;28;20045;-51
2022/03/14 05:15:54;;;;;;;1.73;0.60;;;;;;;5.04;72.23;94560.94;5064728;28;20033;-48
2022/03/14 05:18:21;;;;;;;1.65;0.80;;;;;;;4.94;72.38;94572.44;5049005;28;20052;-54
2022/03/14 05:20:47;;;;;;;1.60;0.75;;;;;;;5.03;72.24;94564.81;5049546;28;20051;-57
2022/03/14 05:23:14;;;;;;;3.60;1.80;;;;;;;5.01;72.86;94572.56;5047742;28;20051;-56
2022/03/14 05:25:41;;;;;;;3.70;2.03;;;;;;;4.96;72.96;94576.34;5047751;28;20045;-47
2022/03/14 05:28:08;;;;;;;2.17;0.90;;;;;;;4.77;72.72;94582.66;5047835;28;20040;-50
2022/03/14 05:30:35;;;;;;;1.85;0.80;;;;;;;4.68;73.06;94584.03;5049143;28;20041;-51
2022/03/14 05:33:02;;;;;;;1.67;0.70;;;;;;;4.59;73.52;94581.56;5048859;28;20078;-61
2022/03/14 05:35:28;;;;;;;1.70;0.70;;;;;;;4.31;74.22;94587.25;5047452;28;20051;-52
2022/03/14 05:37:55;;;;;;;1.37;0.50;;;;;;;4.18;73.95;94592.78;5049188;28;20037;-47
2022/03/14 05:40:22;;;;;;;1.65;0.70;;;;;;;4.13;74.46;94584.16;5048836;28;20041;-48
2022/03/14 05:42:49;;;;;;;1.92;0.95;;;;;;;4.03;74.48;94593.66;5048711;28;20090;-48
2022/03/14 05:45:18;;;;;;;3.83;2.42;;;;;;;4.00;74.89;94595.19;5047079;28;20045;-53
2022/03/14 05:47:46;;;;;;;2.75;1.50;;;;;;;3.98;74.84;94599.38;5048797;28;20039;-47
2022/03/14 05:50:14;;;;;;;4.37;2.33;;;;;;;3.97;74.51;94595.09;5048532;28;20083;-58
2022/03/14 05:52:42;;;;;;;4.28;1.88;;;;;;;3.82;74.19;94602.13;5048127;28;20041;-67
2022/03/14 05:55:09;;;;;;;6.38;3.55;;;;;;;3.75;75.21;94602.78;5048501;28;20048;-52
2022/03/14 05:57:36;;;;;;;6.47;3.17;;;;;;;3.73;75.11;94596.91;5049064;28;20048;-53
2022/03/14 06:00:04;;;;;;;4.18;2.30;;;;;;;3.73;75.39;94609.72;5048048;28;20059;-58
2022/03/14 06:02:33;;;;;;;14.33;8.00;;;;;;;3.64;75.61;94611.84;5043575;28;20401;-58
2022/03/14 06:05:00;;;;;;;12.73;7.25;;;;;;;3.60;75.40;94617.97;5048862;28;20055;-53
2022/03/14 06:07:27;;;;;;;12.38;7.55;;;;;;;3.60;75.76;94617.16;5047908;28;20129;-58
2022/03/14 06:09:54;;;;;;;9.18;5.47;;;;;;;3.57;75.37;94623.31;5048059;28;20521;-48
2022/03/14 06:12:25;;;;;;;10.15;5.95;;;;;;;3.55;75.95;94628.31;5046798;28;20047;-51
2022/03/14 06:14:53;;;;;;;7.60;4.40;;;;;;;3.55;75.60;94637.25;5048257;28;20052;-50
2022/03/14 06:17:21;;;;;;;7.47;4.10;;;;;;;3.58;75.84;94633.84;5048000;28;20041;-50
2022/03/14 06:19:49;;;;;;;6.05;3.80;;;;;;;3.62;75.78;94641.25;5048352;28;20045;-48
2022/03/14 06:22:21;;;;;;;5.28;2.80;;;;;;;3.61;75.68;94645.91;5046852;28;20067;-48
2022/03/14 06:24:49;;;;;;;3.58;1.90;;;;;;;3.66;75.79;94655.69;5040928;28;20037;-57
2022/03/14 06:27:19;;;;;;;5.57;2.07;;;;;;;3.64;75.49;94657.97;5047815;28;20043;-58
2022/03/14 06:29:51;;;;;;;11.57;6.18;;;;;;;3.19;77.27;94673.59;5048039;28;20045;-51
2022/03/14 06:32:18;;;;;;;6.45;2.90;;;;;;;3.18;77.22;94670.09;5047502;28;20071;-51
2022/03/14 06:34:45;;;;;;;5.38;2.63;;;;;;;3.28;77.71;94685.06;5047913;28;20045;-51
2022/03/14 06:37:12;;;;;;;7.13;2.78;;;;;;;3.24;77.99;94681.47;5047890;28;20505;-56
2022/03/14 06:39:39;;;;;;;9.10;2.83;;;;;;;3.19;78.29;94674.38;5048099;28;20048;-61
2022/03/14 06:42:09;;;;;;;6.22;2.47;;;;;;;3.05;78.86;94674.00;5047622;28;20047;-46
2022/03/14 06:44:39;;;;;;;6.15;2.70;;;;;;;3.17;78.17;94678.56;5063490;28;20041;-59
2022/03/14 06:47:12;;;;;;;5.47;2.50;;;;;;;3.28;78.14;94686.97;5047274;28;20098;-60
2022/03/14 06:49:42;;;;;;;9.02;3.10;;;;;;;3.52;78.03;94700.38;5047410;28;20480;-50
2022/03/14 06:52:09;;;;;;;22.90;6.10;;;;;;;3.68;77.47;94704.97;5047625;28;20056;-56
2022/03/14 06:54:36;;;;;;;5.80;2.30;;;;;;;3.74;76.84;94703.56;5048320;28;20048;-50
2022/03/14 06:57:03;;;;;;;9.88;2.33;;;;;;;3.85;76.47;94710.06;5047812;28;20037;-48
2022/03/14 06:59:30;;;;;;;5.70;1.63;;;;;;;3.98;75.89;94710.72;5047009;28;20037;-56
2022/03/14 07:01:57;;;;;;;4.53;1.60;;;;;;;4.09;75.73;94708.25;5047755;28;20040;-54
2022/03/14 07:04:24;;;;;;;6.57;1.97;;;;;;;4.28;75.86;94711.00;5048499;28;20045;-59
2022/03/14 07:06:51;;;;;;;8.43;2.05;;;;;;;4.32;75.26;94713.78;5052845;28;20044;-53
2022/03/14 07:09:18;;;;;;;6.35;1.70;;;;;;;4.43;74.88;94711.28;5071353;28;20078;-49
2022/03/14 07:11:45;;;;;;;2.00;0.90;;;;;;;4.23;74.99;94715.94;5070506;28;20677;-63
2022/03/14 07:14:11;;;;;;;3.08;1.00;;;;;;;4.31;74.87;94718.44;5071293;28;20062;-50
2022/03/14 07:16:38;;;;;;;1.87;1.03;;;;;;;4.38;73.76;94724.00;5066175;28;20040;-57
2022/03/14 07:19:05;;;;;;;1.90;0.90;;;;;;;4.52;74.17;94730.91;5051372;28;20047;-52
2022/03/14 07:21:34;;;;;;;2.00;0.80;;;;;;;4.63;72.88;94737.34;5050447;28;20036;-58
2022/03/14 07:24:00;;;;;;;2.63;0.93;;;;;;;4.91;71.92;94741.78;5051521;28;20067;-59
2022/03/14 07:26:27;;;;;;;2.78;1.00;;;;;;;5.34;71.05;94737.94;5051461;28;20049;-50
2022/03/14 07:28:54;;;;;;;2.80;1.23;;;;;;;5.49;69.57;94744.41;5050227;28;20048;-51
2022/03/14 07:31:21;;;;;;;2.25;0.82;;;;;;;5.79;67.92;94736.38;5051462;28;20045;-53
2022/03/14 07:33:48;;;;;;;1.85;0.90;;;;;;;6.12;66.87;94737.69;5051221;28;20413;-51
2022/03/14 07:36:15;;;;;;;2.10;0.80;;;;;;;7.18;64.37;94736.72;5051610;28;20757;-48
2022/03/14 07:38:42;;;;;;;1.77;0.70;;;;;;;11.00;53.24;94725.97;5050388;28;20053;-62
2022/03/14 07:41:09;;;;;;;2.10;0.80;;;;;;;12.86;47.46;94734.06;5050995;28;20049;-49
2022/03/14 07:43:40;;;;;;;2.28;0.70;;;;;;;13.39;44.47;94740.94;5051627;28;20045;-49
2022/03/14 07:46:07;;;;;;;2.58;0.80;;;;;;;11.10;49.05;94746.31;5051074;28;20059;-59
2022/03/14 07:48:34;;;;;;;12.00;2.00;;;;;;;12.77;46.04;94748.31;5050563;28;20037;-49
2022/03/14 07:51:03;;;;;;;4.25;1.00;;;;;;;14.68;41.47;94755.56;5051187;28;20393;-51
2022/03/14 07:53:33;;;;;;;1.60;0.60;;;;;;;13.40;44.14;94767.34;5050949;28;20049;-51
2022/03/14 07:55:59;;;;;;;4.80;0.73;;;;;;;12.88;44.41;94770.25;5051382;28;20045;-48
2022/03/14 07:58:27;;;;;;;5.43;0.90;;;;;;;12.11;45.82;94765.81;5050632;28;20083;-55
2022/03/14 08:00:57;;;;;;;7.03;1.33;;;;;;;11.75;46.68;94772.31;5050696;28;20055;-47
2022/03/14 08:03:24;;;;;;;5.03;1.02;;;;;;;11.37;47.62;94774.09;5050651;28;20063;-48
2022/03/14 08:05:56;;;;;;;4.23;1.00;;;;;;;11.11;47.68;94781.66;5051004;28;20044;-51
2022/03/14 08:08:22;;;;;;;3.45;1.40;;;;;;;12.10;45.84;94787.03;5050896;28;20395;-49
2022/03/14 08:10:50;;;;;;;6.68;1.95;;;;;;;13.70;42.10;94790.56;5050849;28;20786;-54
2022/03/14 08:13:19;;;;;;;2.78;0.98;;;;;;;11.82;45.44;94796.25;5050707;28;20045;-50
2022/03/14 08:15:46;;;;;;;4.13;1.15;;;;;;;10.09;49.49;94797.81;5050130;28;20114;-57
2022/03/14 08:18:13;;;;;;;2.83;1.10;;;;;;;9.55;50.77;94803.19;5050021;28;20048;-59
2022/03/14 08:20:40;;;;;;;2.17;0.70;;;;;;;9.25;51.22;94806.22;5051081;28;20209;-59
2022/03/14 08:23:07;;;;;;;8.88;3.97;;;;;;;9.75;50.45;94814.59;5050257;28;20045;-51
2022/03/14 08:25:34;;;;;;;10.35;4.35;;;;;;;13.66;41.77;94798.13;5049520;28;20053;-62
2022/03/14 08:28:02;;;;;;;3.80;1.30;;;;;;;16.53;35.39;94804.75;5033129;28;20404;-52
2022/03/14 08:30:29;;;;;;;5.00;1.50;;;;;;;18.24;32.69;94797.78;5049273;28;20079;-52
2022/03/14 08:32:57;;;;;;;4.13;1.48;;;;;;;20.69;28.42;94793.56;5050564;28;20067;-56
2022/03/14 08:35:26;;;;;;;4.78;1.38;;;;;;;17.86;31.91;94784.63;5050280;28;20072;-53
2022/03/14 08:37:54;;;;;;;2.70;1.10;;;;;;;18.70;32.14;94801.09;5050479;28;20097;-52
2022/03/14 08:40:24;;;;;;;2.75;0.80;;;;;;;20.99;28.76;94799.53;5050069;28;20122;-54
2022/03/14 08:42:53;;;;;;;6.53;1.00;;;;;;;22.44;26.13;94806.75;5050425;28;20102;-65
2022/03/14 08:45:21;;;;;;;3.05;0.90;;;;;;;22.82;24.80;94810.13;5049937;28;20045;-47
2022/03/14 08:47:48;;;;;;;3.95;1.38;;;;;;;22.69;23.70;94813.94;5050250;28;20041;-48
2022/03/14 08:50:15;;;;;;;4.20;1.00;;;;;;;23.12;24.67;94822.31;5049730;28;20056;-54
2022/03/14 08:52:45;;;;;;;2.63;1.00;;;;;;;23.94;22.83;94831.34;5050430;28;20119;-56
2022/03/14 08:55:13;;;;;;;6.47;2.60;;;;;;;20.69;26.56;94838.19;5049536;28;20410;-51
2022/03/14 08:57:42;;;;;;;2.95;0.93;;;;;;;18.65;29.07;94840.59;5050254;28;20037;-56
2022/03/14 09:00:11;;;;;;;5.15;1.17;;;;;;;15.40;35.04;94845.50;5049347;28;20045;-58
2022/03/14 09:02:38;;;;;;;6.47;1.05;;;;;;;18.51;29.99;94841.03;5050360;28;20040;-51
2022/03/14 09:05:06;;;;;;;3.88;0.90;;;;;;;19.45;27.89;94828.41;5049974;28;20405;-53
2022/03/14 09:07:33;;;;;;;4.73;1.07;;;;;;;18.69;29.05;94829.34;5048975;28;20638;-53
2022/03/14 09:10:02;;;;;;;4.20;1.23;;;;;;;15.52;33.70;94825.50;5049715;28;20052;-60
2022/03/14 09:12:30;;;;;;;4.20;1.50;;;;;;;16.22;33.38;94822.88;5049587;28;20043;-49
2022/03/14 09:14:56;;;;;;;5.82;1.60;;;;;;;16.43;32.52;94824.41;5059835;28;20084;-53
2022/03/14 09:17:24;;;;;;;5.60;1.95;;;;;;;15.27;33.71;94830.72;5048157;28;20068;-50
2022/03/14 09:19:51;;;;;;;7.00;1.40;;;;;;;14.69;34.87;94826.22;5049897;28;20041;-59
2022/03/14 09:22:18;;;;;;;7.18;1.10;;;;;;;13.63;36.81;94823.78;5049199;28;20048;-49
2022/03/14 09:24:47;;;;;;;6.43;1.48;;;;;;;16.89;32.07;94820.53;5049674;28;20041;-48
2022/03/14 09:27:14;;;;;;;14.98;2.65;;;;;;;18.75;29.29;94824.78;5049016;28;20083;-50
2022/03/14 09:29:41;;;;;;;3.95;1.02;;;;;;;21.89;25.10;94818.81;5049551;28;20040;-53
2022/03/14 09:32:08;;;;;;;5.20;1.00;;;;;;;21.85;24.70;94821.00;5044452;28;20051;-57
2022/03/14 09:34:37;;;;;;;5.18;1.30;;;;;;;22.11;24.24;94823.41;5049973;28;20424;-61
2022/03/14 09:37:04;;;;;;;2.95;1.20;;;;;;;22.20;24.07;94817.81;5049230;28;20037;-52
2022/03/14 09:39:32;;;;;;;5.03;1.20;;;;;;;22.99;23.19;94821.72;5048949;28;20053;-62
2022/03/14 09:42:00;;;;;;;3.85;1.00;;;;;;;24.42;20.85;94822.00;5049085;28;20051;-53
2022/03/14 09:44:29;;;;;;;2.97;0.90;;;;;;;24.62;20.14;94819.28;5049161;28;20477;-52
2022/03/14 09:47:04;;;;;;;4.65;0.98;;;;;;;22.41;22.59;94816.06;5064476;28;20048;-57
2022/03/14 09:49:34;;;;;;;3.33;1.00;;;;;;;22.23;23.12;94824.47;5048800;28;20055;-51
2022/03/14 09:52:02;;;;;;;3.33;1.60;;;;;;;23.68;21.97;94829.06;5049190;28;20520;-49
2022/03/14 09:54:29;;;;;;;4.60;1.13;;;;;;;24.73;21.16;94832.75;5048869;28;20045;-51
2022/03/14 09:57:01;;;;;;;3.37;0.90;;;;;;;23.55;21.97;94830.56;5047649;28;20048;-49
2022/03/14 09:59:28;;;;;;;7.20;2.70;;;;;;;24.56;20.79;94838.06;5048356;28;20043;-52
2022/03/14 10:01:55;;;;;;;7.07;2.83;;;;;;;25.39;19.78;94834.19;5048900;28;20040;-62
2022/03/14 10:04:22;;;;;;;6.00;1.55;;;;;;;20.97;23.90;94851.44;5048685;28;20044;-51
2022/03/14 10:06:49;;;;;;;4.18;1.05;;;;;;;19.73;25.42;94853.72;5049002;28;20048;-50
2022/03/14 10:09:16;;;;;;;3.13;1.07;;;;;;;20.27;25.42;94851.75;5048423;28;20041;-53
2022/03/14 10:11:43;;;;;;;3.75;1.00;;;;;;;22.52;22.17;94849.16;5049159;28;20055;-61
2022/03/14 10:14:16;;;;;;;5.15;1.30;;;;;;;18.41;26.99;94851.28;5048422;28;20051;-50
2022/03/14 10:16:44;;;;;;;3.10;1.10;;;;;;;22.43;22.81;94852.72;5048924;28;20537;-51
2022/03/14 10:19:20;;;;;;;4.13;1.20;;;;;;;22.63;21.79;94846.59;5048407;28;20490;-52
2022/03/14 10:21:50;;;;;;;4.10;1.10;;;;;;;23.46;21.53;94848.22;5048813;28;20068;-53
2022/03/14 10:24:21;;;;;;;3.65;1.10;;;;;;;20.44;24.25;94855.84;5047764;28;20056;-58
2022/03/14 10:26:49;;;;;;;3.33;1.13;;;;;;;21.53;23.73;94861.50;5048641;28;20033;-52
2022/03/14 10:29:18;;;;;;;3.80;1.02;;;;;;;23.51;21.41;94870.75;5061223;28;20049;-51
2022/03/14 10:31:54;;;;;;;5.78;1.80;;;;;;;24.50;20.71;94877.25;5048878;28;20037;-51
2022/03/14 10:34:21;;;;;;;3.63;1.20;;;;;;;24.65;20.28;94880.06;5048034;28;20401;-54
2022/03/14 10:36:54;;;;;;;3.13;0.90;;;;;;;24.62;19.94;94877.44;5048784;28;20045;-55
2022/03/14 10:39:25;;;;;;;3.28;1.00;;;;;;;23.33;21.26;94871.63;5050617;28;20057;-61
2022/03/14 10:42:12;;;;;;;4.45;1.48;;;;;;;23.32;22.13;94863.69;5055367;28;20504;-56
2022/03/14 10:44:47;;;;;;;4.35;1.00;;;;;;;24.22;19.98;94865.50;5053980;28;20629;-51
2022/03/14 10:47:14;;;;;;;5.43;1.53;;;;;;;24.98;19.14;94869.84;5054495;28;20051;-51
2022/03/14 10:49:45;;;;;;;7.72;1.70;;;;;;;24.11;20.38;94865.31;5055258;28;20045;-49
2022/03/14 10:52:15;;;;;;;4.40;1.30;;;;;;;24.00;20.20;94851.09;5054821;28;20041;-52
2022/03/14 10:54:43;;;;;;;3.95;1.20;;;;;;;24.71;19.06;94858.47;5055493;28;20041;-55
2022/03/14 10:57:13;;;;;;;3.28;1.20;;;;;;;25.41;18.66;94847.75;5054211;28;20045;-59
2022/03/14 10:59:49;;;;;;;4.70;1.30;;;;;;;23.70;20.27;94848.19;5054826;28;20041;-56
2022/03/14 11:02:27;;;;;;;2.97;1.00;;;;;;;24.75;19.29;94852.66;5054387;28;20044;-55
2022/03/14 11:04:57;;;;;;;2.90;1.05;;;;;;;26.21;17.83;94847.44;5055097;28;20550;-54
2022/03/14 11:07:28;;;;;;;3.22;1.00;;;;;;;26.30;17.55;94850.09;5052584;28;20087;-51
2022/03/14 11:09:57;;;;;;;2.97;0.85;;;;;;;26.26;17.45;94850.31;5053400;28;20048;-52
2022/03/14 11:12:29;;;;;;;6.17;2.00;;;;;;;24.23;19.09;94855.09;5052851;28;20036;-51
2022/03/14 11:15:05;;;;;;;3.20;0.93;;;;;;;22.67;20.64;94854.84;5054800;28;20049;-51
2022/03/14 11:17:34;;;;;;;3.17;1.00;;;;;;;23.71;20.42;94856.13;5053797;28;20621;-48
2022/03/14 11:20:22;;;;;;;3.00;1.10;;;;;;;23.81;19.40;94850.47;5054288;28;20063;-51
2022/03/14 11:22:51;;;;;;;5.30;1.20;;;;;;;26.35;17.84;94843.72;5054844;28;20041;-52
2022/03/14 11:25:18;;;;;;;5.50;1.00;;;;;;;23.72;19.14;94842.88;5054277;28;20052;-52
2022/03/14 11:27:47;;;;;;;3.00;1.30;;;;;;;21.99;21.61;94855.13;5054966;28;20040;-52
2022/03/14 11:30:15;;;;;;;3.35;1.10;;;;;;;21.29;22.53;94836.19;5054039;28;20049;-58
2022/03/14 11:32:44;;;;;;;4.28;1.20;;;;;;;22.53;20.43;94831.09;5054897;28;20059;-51
2022/03/14 11:35:12;;;;;;;3.38;1.00;;;;;;;21.85;21.10;94831.38;5054102;28;20067;-53
2022/03/14 11:37:42;;;;;;;4.30;1.00;;;;;;;20.95;21.94;94822.00;5054652;28;20041;-48
2022/03/14 11:40:10;;;;;;;3.65;1.30;;;;;;;20.50;24.00;94834.53;5054176;28;20047;-48